Ana Sayfa
METAR-TAF:

METAR-TAF

Havaalanları :

Concord, Kuzey Carolina, Amerika Birleşik Devletleri

Enlem: 35-23-07N, Boylam: 080-42-35W, yükseklik: 210 m

Güncel hava durumu gözlemi

Rapor saat 02:18 UTC de 39 dakika önce yapıldı.
Rüzgar güneybatıdan 16 kt ve 21 kt'a kadar ani rüzgarlar
Sıcaklık 28°C
Nem 62%
Basınç 1018 hPa
Görüş mesafesi: 11.3 km
6000 ft yükseklikte çok bulutlu
yağmur, Pus

METAR: KJQF 200218Z 22016G21KT 7SM RA BR OVC060 28/20 A3005 RMK TSE18

Saat: 22:57 (02:57 UTC)


TAF: eksik

4.000'den fazla havaalanı için hava durumu gözlemleri ve tahminleri (METAR ve TAF raporları).

Kullanılabilir istasyonlar harita üzerinde sarı ve kırmızı noktalarla gösterilir.

İstasyonun adını görmek için fareyi noktanın üzerinde gezdirin.

Sonrasında hava gözlem ve tahminlerini görmek için tıklayın.

Haritayı değiştirmek için: yaklaştırmak için siyah artı işaretli yeşil düğmeye ve uzaklaştırmak için de eksi işaretli düğmeye hızla tıklayın; bitişik haritalar için yeşil okları kullanın.


METAR-TAF: